createdAt,value
2019-02-07T00:02:19.980Z,1.50
2019-02-07T00:06:22.940Z,2.13
2019-02-07T00:10:25.609Z,2.00
2019-02-07T00:14:39.289Z,1.77
2019-02-07T00:18:33.408Z,2.20
2019-02-07T00:22:39.131Z,2.13
2019-02-07T00:26:40.938Z,2.83
2019-02-07T00:30:43.667Z,1.60
2019-02-07T00:34:46.718Z,1.90
2019-02-07T00:38:49.352Z,1.97
2019-02-07T00:42:53.420Z,2.13
2019-02-07T00:46:55.964Z,1.80
2019-02-07T00:51:01.083Z,1.70
2019-02-07T00:55:05.142Z,2.27
2019-02-07T00:59:09.113Z,2.30
2019-02-07T01:03:11.933Z,1.80
2019-02-07T01:07:15.004Z,2.13
2019-02-07T01:11:17.838Z,2.30
2019-02-07T01:15:22.960Z,2.23
2019-02-07T01:19:25.915Z,2.23
2019-02-07T01:23:28.741Z,2.43
2019-02-07T01:27:31.661Z,2.87
2019-02-07T01:31:34.524Z,2.00
2019-02-07T01:35:37.596Z,2.30
2019-02-07T01:39:40.609Z,2.47
2019-02-07T01:43:43.761Z,2.20
2019-02-07T01:47:46.626Z,2.10
2019-02-07T01:51:49.364Z,2.27
2019-02-07T01:55:52.202Z,2.20
2019-02-07T01:59:54.865Z,2.23
2019-02-07T02:03:57.493Z,2.60
2019-02-07T02:08:00.248Z,1.90
2019-02-07T02:12:03.007Z,2.40
2019-02-07T02:16:05.801Z,1.90
2019-02-07T02:20:11.356Z,3.03
2019-02-07T02:24:14.585Z,2.33
2019-02-07T02:28:17.199Z,2.10
2019-02-07T02:32:21.282Z,2.47
2019-02-07T02:36:24.126Z,2.17
2019-02-07T02:40:27.709Z,1.97
2019-02-07T02:44:31.445Z,2.43
2019-02-07T02:48:34.139Z,1.97
2019-02-07T02:52:36.637Z,2.23
2019-02-07T02:56:39.206Z,2.50
2019-02-07T03:01:01.300Z,1.77
2019-02-07T03:05:33.648Z,2.33
2019-02-07T03:10:04.501Z,2.50
2019-02-07T03:14:24.907Z,2.60
2019-02-07T03:18:51.965Z,2.13
2019-02-07T03:23:28.655Z,2.20
2019-02-07T03:28:02.269Z,2.53
2019-02-07T03:32:23.191Z,2.20
2019-02-07T03:36:49.125Z,2.20
2019-02-07T03:41:03.459Z,2.20
2019-02-07T03:45:32.804Z,1.70
2019-02-07T03:49:49.116Z,2.30
2019-02-07T03:54:08.702Z,2.50
2019-02-07T03:58:33.099Z,2.30
2019-02-07T04:03:00.596Z,2.27
2019-02-07T04:07:22.106Z,2.73
2019-02-07T04:11:48.554Z,2.17
2019-02-07T04:16:15.201Z,2.73
2019-02-07T04:20:40.325Z,2.10
2019-02-07T04:25:03.600Z,2.57
2019-02-07T04:29:22.161Z,2.67
2019-02-07T04:33:50.458Z,2.10
2019-02-07T04:38:05.543Z,2.17
2019-02-07T04:42:42.129Z,2.30
2019-02-07T04:47:14.833Z,2.10
2019-02-07T04:51:31.641Z,2.10
2019-02-07T04:55:59.210Z,2.10
2019-02-07T05:00:38.983Z,1.80
2019-02-07T05:05:03.176Z,1.90
2019-02-07T05:09:26.645Z,2.00
2019-02-07T05:14:00.267Z,1.93
2019-02-07T05:18:23.026Z,1.47
2019-02-07T05:22:48.456Z,2.10
2019-02-07T05:27:10.799Z,1.70
2019-02-07T05:31:26.605Z,1.80
2019-02-07T05:35:48.029Z,1.80
2019-02-07T05:39:54.822Z,1.90
2019-02-07T05:44:15.020Z,1.50
2019-02-07T05:48:35.316Z,1.80
2019-02-07T05:53:08.835Z,1.50
2019-02-07T05:57:30.473Z,1.43
2019-02-07T06:02:01.120Z,1.50
2019-02-07T06:06:21.115Z,1.50
2019-02-07T06:10:47.462Z,1.23
2019-02-07T06:15:07.866Z,1.43
2019-02-07T06:19:32.470Z,1.40
2019-02-07T06:23:52.468Z,0.90
2019-02-07T06:28:17.075Z,1.13
2019-02-07T06:32:41.850Z,1.20
2019-02-07T06:37:02.089Z,1.23
2019-02-07T06:41:23.514Z,1.30
2019-02-07T06:45:45.070Z,1.57
2019-02-07T06:50:04.635Z,1.20
2019-02-07T06:54:27.302Z,1.10
2019-02-07T06:58:47.295Z,1.47
2019-02-07T07:03:08.724Z,1.30
2019-02-07T07:07:36.811Z,1.33
2019-02-07T07:12:01.074Z,1.70
2019-02-07T07:16:28.679Z,1.17
2019-02-07T07:21:03.933Z,1.07
2019-02-07T07:25:31.714Z,1.00
2019-02-07T07:30:12.604Z,1.23
2019-02-07T07:34:42.325Z,1.07
2019-02-07T07:39:13.697Z,0.90
2019-02-07T07:43:35.224Z,1.40
2019-02-07T07:47:59.543Z,1.10
2019-02-07T07:52:19.107Z,1.10
2019-02-07T07:56:38.502Z,1.00
2019-02-07T08:01:05.858Z,1.00
2019-02-07T08:05:30.976Z,0.83
2019-02-07T08:10:01.323Z,1.10
2019-02-07T08:14:25.893Z,1.13
2019-02-07T08:18:52.895Z,1.03
2019-02-07T08:23:20.537Z,1.07
2019-02-07T08:27:37.946Z,1.37
2019-02-07T08:32:02.184Z,1.03
2019-02-07T08:36:24.154Z,1.60
2019-02-07T08:40:44.347Z,1.70
2019-02-07T08:45:07.732Z,2.50
2019-02-07T08:49:31.706Z,2.20
2019-02-07T08:53:52.323Z,2.70
2019-02-07T08:58:03.149Z,2.10
2019-02-07T09:02:51.639Z,2.20
2019-02-07T09:07:04.232Z,2.57
2019-02-07T09:11:40.657Z,2.30
2019-02-07T09:16:11.310Z,2.23
2019-02-07T09:20:32.953Z,2.40
2019-02-07T09:24:53.351Z,2.40
2019-02-07T09:29:14.989Z,1.80
2019-02-07T09:33:35.696Z,2.00
2019-02-07T09:38:00.718Z,2.27
2019-02-07T09:42:22.455Z,2.03
2019-02-07T09:46:46.652Z,2.60
2019-02-07T09:51:17.293Z,2.70
2019-02-07T09:55:51.421Z,2.73
2019-02-07T10:00:28.659Z,3.17
2019-02-07T10:04:53.231Z,3.23
2019-02-07T10:09:13.543Z,3.00
2019-02-07T10:13:35.269Z,3.33
2019-02-07T10:17:56.673Z,3.90
2019-02-07T10:22:18.137Z,3.83
2019-02-07T10:26:38.641Z,4.27
2019-02-07T10:31:03.351Z,3.67
2019-02-07T10:35:28.695Z,4.23
2019-02-07T10:39:41.396Z,4.63
2019-02-07T10:43:56.382Z,4.83
2019-02-07T10:48:24.054Z,5.17
2019-02-07T10:52:40.876Z,5.17
2019-02-07T10:57:05.371Z,5.10
2019-02-07T11:01:27.116Z,7.90
2019-02-07T11:05:55.000Z,6.03
2019-02-07T11:10:16.630Z,6.10
2019-02-07T11:14:37.717Z,5.83
2019-02-07T11:18:55.587Z,7.57
2019-02-07T11:23:10.711Z,3.83
2019-02-07T11:27:48.489Z,2.63
2019-02-07T11:32:08.291Z,2.23
2019-02-07T11:36:30.335Z,3.50
2019-02-07T11:40:51.560Z,1.93
2019-02-07T11:45:19.135Z,9.77
2019-02-07T11:49:49.574Z,5.00
2019-02-07T11:54:17.251Z,4.30
2019-02-07T11:58:37.566Z,3.30
2019-02-07T12:03:11.684Z,3.33
2019-02-07T12:07:43.155Z,2.63
2019-02-07T12:12:05.811Z,5.73
2019-02-07T12:16:26.424Z,3.50
2019-02-07T12:20:48.056Z,3.13
2019-02-07T12:25:08.668Z,3.90
2019-02-07T12:29:30.069Z,2.53
2019-02-07T12:33:52.555Z,3.27
2019-02-07T12:38:23.199Z,4.13
2019-02-07T12:42:50.546Z,4.30
2019-02-07T12:47:10.671Z,4.03
2019-02-07T12:51:38.249Z,4.17
2019-02-07T12:55:58.552Z,2.73
2019-02-07T13:00:32.676Z,1.97
2019-02-07T13:04:53.085Z,1.67
2019-02-07T13:09:13.286Z,1.67
2019-02-07T13:13:29.391Z,2.20
2019-02-07T13:17:55.240Z,1.53
2019-02-07T13:22:19.740Z,2.53
2019-02-07T13:26:39.396Z,2.60
2019-02-07T13:31:19.153Z,2.27
2019-02-07T13:35:43.595Z,1.73
2019-02-07T13:40:05.097Z,1.60
2019-02-07T13:44:33.112Z,1.53
2019-02-07T13:49:09.818Z,2.03
2019-02-07T13:53:34.093Z,1.77
2019-02-07T13:57:54.022Z,1.40
2019-02-07T14:02:15.322Z,1.90
2019-02-07T14:06:48.699Z,1.53
2019-02-07T14:11:16.803Z,1.83
2019-02-07T14:15:47.963Z,3.03
2019-02-07T14:20:09.408Z,1.07
2019-02-07T14:24:27.729Z,2.10
2019-02-07T14:28:45.402Z,2.40
2019-02-07T14:33:03.338Z,1.90
2019-02-07T14:37:27.269Z,6.43
2019-02-07T14:41:48.808Z,2.80
2019-02-07T14:46:08.864Z,2.23
2019-02-07T14:50:14.827Z,2.37
2019-02-07T14:54:18.423Z,2.33
2019-02-07T14:58:21.348Z,2.93
2019-02-07T15:02:24.098Z,3.27
2019-02-07T15:06:26.845Z,3.47
2019-02-07T15:10:29.585Z,3.20
2019-02-07T15:14:32.367Z,3.10
2019-02-07T15:18:38.054Z,3.40
2019-02-07T15:22:40.818Z,2.20
2019-02-07T15:26:43.516Z,2.13
2019-02-07T15:30:46.706Z,1.40
2019-02-07T15:34:49.536Z,2.00
2019-02-07T15:38:52.358Z,1.73
2019-02-07T15:42:56.256Z,1.40
2019-02-07T15:46:58.925Z,2.10
2019-02-07T15:51:02.189Z,1.67
2019-02-07T15:55:06.422Z,2.00
2019-02-07T15:59:17.767Z,2.13
2019-02-07T16:03:29.501Z,2.00
2019-02-07T16:07:33.210Z,2.10
2019-02-07T16:11:36.167Z,2.03
2019-02-07T16:15:39.221Z,1.70
2019-02-07T16:19:42.033Z,2.13
2019-02-07T16:23:44.835Z,3.40
2019-02-07T16:27:47.740Z,2.90
2019-02-07T16:31:50.571Z,3.03
2019-02-07T16:35:53.257Z,2.37
2019-02-07T16:39:56.161Z,5.50
2019-02-07T16:43:59.430Z,6.70
2019-02-07T16:48:02.187Z,2.50
2019-02-07T16:52:04.950Z,3.17
2019-02-07T16:56:07.776Z,4.93
2019-02-07T17:00:29.301Z,6.50
2019-02-07T17:04:32.186Z,3.17
2019-02-07T17:08:34.790Z,2.20
2019-02-07T17:12:37.672Z,2.97
2019-02-07T17:16:40.376Z,1.47
2019-02-07T17:20:43.240Z,2.43
2019-02-07T17:24:46.881Z,2.47
2019-02-07T17:28:49.606Z,2.60
2019-02-07T17:32:52.750Z,3.47
2019-02-07T17:36:55.444Z,2.10
2019-02-07T17:40:58.112Z,2.17
2019-02-07T17:45:02.066Z,2.67
2019-02-07T17:49:05.551Z,2.73
2019-02-07T17:53:08.756Z,2.20
2019-02-07T17:57:11.391Z,2.83
2019-02-07T18:01:14.207Z,2.50
2019-02-07T18:05:16.903Z,1.40
2019-02-07T18:09:19.637Z,1.87
2019-02-07T18:13:22.383Z,2.43
2019-02-07T18:17:25.106Z,2.23
2019-02-07T18:21:34.246Z,2.63
2019-02-07T18:25:32.106Z,1.70
2019-02-07T18:29:34.985Z,1.50
2019-02-07T18:33:37.744Z,1.80
2019-02-07T18:37:41.631Z,2.63
2019-02-07T18:41:44.096Z,2.87
2019-02-07T18:45:47.223Z,3.00
2019-02-07T18:49:49.561Z,2.60
2019-02-07T18:53:52.567Z,2.50
2019-02-07T18:57:55.097Z,2.00
2019-02-07T19:01:57.673Z,2.23
2019-02-07T19:06:02.601Z,1.73
2019-02-07T19:10:06.582Z,1.77
2019-02-07T19:14:08.994Z,1.37
2019-02-07T19:18:11.629Z,1.43
2019-02-07T19:22:13.985Z,1.60
2019-02-07T19:26:16.403Z,1.97
2019-02-07T19:30:24.547Z,1.30
2019-02-07T19:34:26.933Z,1.63
2019-02-07T19:38:29.463Z,1.17
2019-02-07T19:42:31.868Z,1.60
2019-02-07T19:46:34.409Z,1.57
2019-02-07T19:50:36.824Z,1.30
2019-02-07T19:54:39.204Z,1.43
2019-02-07T19:58:41.638Z,1.97
2019-02-07T20:02:44.369Z,1.23
2019-02-07T20:06:47.035Z,1.67
2019-02-07T20:10:49.659Z,1.07
2019-02-07T20:14:52.187Z,1.30
2019-02-07T20:18:54.599Z,1.40
2019-02-07T20:22:57.037Z,1.50
2019-02-07T20:26:59.460Z,1.40
2019-02-07T20:31:01.869Z,1.47
2019-02-07T20:35:04.430Z,1.90
2019-02-07T20:39:09.976Z,1.70
2019-02-07T20:43:12.545Z,1.93
2019-02-07T20:47:15.301Z,1.23
2019-02-07T20:51:17.750Z,1.90
2019-02-07T20:55:20.582Z,1.90
2019-02-07T20:59:23.199Z,1.60
2019-02-07T21:03:25.875Z,1.67
2019-02-07T21:07:28.524Z,1.70
2019-02-07T21:11:31.143Z,1.93
2019-02-07T21:15:33.825Z,1.50
2019-02-07T21:19:36.504Z,1.73
2019-02-07T21:23:38.940Z,1.77
2019-02-07T21:27:41.433Z,2.07
2019-02-07T21:31:43.786Z,1.97
2019-02-07T21:35:46.325Z,2.17
2019-02-07T21:39:48.652Z,2.20
2019-02-07T21:43:51.049Z,2.43
2019-02-07T21:47:55.339Z,2.93
2019-02-07T21:51:57.831Z,2.80
2019-02-07T21:56:01.117Z,3.43
2019-02-07T22:00:03.835Z,3.70
2019-02-07T22:04:06.873Z,3.33
2019-02-07T22:08:09.727Z,3.63
2019-02-07T22:12:12.062Z,3.23
2019-02-07T22:16:14.440Z,3.70
2019-02-07T22:20:22.292Z,3.73
2019-02-07T22:24:24.802Z,4.93
2019-02-07T22:28:27.125Z,3.87
2019-02-07T22:32:29.668Z,4.20
2019-02-07T22:36:32.011Z,4.20
2019-02-07T22:40:34.423Z,4.23
2019-02-07T22:44:37.958Z,5.00
2019-02-07T22:48:42.054Z,5.30
2019-02-07T22:52:44.676Z,5.40
2019-02-07T22:56:47.537Z,5.57
2019-02-07T23:01:29.015Z,6.03
2019-02-07T23:05:31.540Z,5.67
2019-02-07T23:09:34.282Z,6.50
2019-02-07T23:13:36.755Z,6.17
2019-02-07T23:17:39.316Z,6.10
2019-02-07T23:21:41.948Z,7.10
2019-02-07T23:25:45.510Z,7.73
2019-02-07T23:29:47.913Z,7.77
2019-02-07T23:33:50.360Z,7.37
2019-02-07T23:37:52.773Z,7.40
2019-02-07T23:41:55.115Z,6.90
2019-02-07T23:45:57.594Z,7.83
2019-02-07T23:50:00.136Z,7.33
2019-02-07T23:54:02.552Z,7.80
2019-02-07T23:58:05.194Z,7.50
